createdAt,value
2018-03-17T00:01:58.145Z,0.70
2018-03-17T00:04:26.284Z,0.80
2018-03-17T00:06:55.179Z,0.80
2018-03-17T00:09:23.327Z,0.80
2018-03-17T00:11:51.489Z,0.70
2018-03-17T00:14:19.605Z,0.80
2018-03-17T00:16:47.725Z,0.90
2018-03-17T00:19:15.880Z,0.90
2018-03-17T00:21:43.992Z,0.90
2018-03-17T00:24:12.128Z,1.10
2018-03-17T00:26:40.298Z,1.20
2018-03-17T00:29:08.410Z,1.30
2018-03-17T00:31:36.603Z,1.40
2018-03-17T00:34:04.761Z,1.50
2018-03-17T00:36:32.906Z,1.60
2018-03-17T00:39:01.167Z,1.70
2018-03-17T00:41:29.296Z,1.90
2018-03-17T00:43:58.173Z,2.30
2018-03-17T00:46:26.338Z,2.20
2018-03-17T00:48:54.440Z,2.30
2018-03-17T00:51:22.885Z,2.20
2018-03-17T00:53:51.038Z,2.20
2018-03-17T00:56:19.982Z,2.20
2018-03-17T00:58:48.130Z,2.20
2018-03-17T01:01:16.278Z,2.30
2018-03-17T01:03:44.414Z,2.30
2018-03-17T01:06:12.553Z,2.40
2018-03-17T01:08:40.689Z,2.40
2018-03-17T01:11:08.947Z,2.40
2018-03-17T01:13:37.098Z,2.50
2018-03-17T01:16:05.234Z,2.50
2018-03-17T01:18:33.333Z,2.40
2018-03-17T01:21:01.492Z,2.40
2018-03-17T01:23:29.656Z,2.40
2018-03-17T01:25:57.762Z,2.50
2018-03-17T01:28:26.012Z,2.50
2018-03-17T01:30:54.765Z,2.40
2018-03-17T01:33:22.907Z,2.30
2018-03-17T01:35:51.087Z,2.30
2018-03-17T01:38:19.238Z,2.20
2018-03-17T01:40:48.129Z,2.30
2018-03-17T01:43:17.040Z,2.30
2018-03-17T01:45:45.907Z,2.30
2018-03-17T01:48:14.032Z,2.30
2018-03-17T01:50:42.976Z,2.50
2018-03-17T01:53:11.098Z,2.50
2018-03-17T01:55:39.273Z,2.60
2018-03-17T01:58:07.442Z,2.70
2018-03-17T02:00:35.589Z,2.80
2018-03-17T02:03:03.788Z,2.90
2018-03-17T02:05:31.948Z,3.10
2018-03-17T02:08:00.818Z,3.10
2018-03-17T02:10:28.999Z,3.00
2018-03-17T02:12:57.122Z,3.10
2018-03-17T02:15:25.976Z,3.20
2018-03-17T02:17:54.192Z,3.20
2018-03-17T02:20:23.830Z,3.40
2018-03-17T02:22:52.753Z,3.50
2018-03-17T02:25:20.911Z,3.50
2018-03-17T02:27:49.010Z,3.50
2018-03-17T02:30:17.914Z,3.70
2018-03-17T02:32:46.888Z,3.70
2018-03-17T02:35:15.070Z,3.70
2018-03-17T02:37:43.250Z,3.70
2018-03-17T02:40:11.343Z,3.70
2018-03-17T02:42:39.470Z,3.80
2018-03-17T02:45:08.357Z,3.90
2018-03-17T02:47:37.269Z,4.00
2018-03-17T02:50:06.256Z,4.00
2018-03-17T02:52:34.511Z,4.00
2018-03-17T02:55:02.651Z,4.00
2018-03-17T02:57:30.784Z,3.90
2018-03-17T02:59:58.960Z,4.00
2018-03-17T03:02:27.159Z,3.90
2018-03-17T03:04:55.291Z,3.90
2018-03-17T03:07:24.192Z,3.70
2018-03-17T03:09:53.082Z,3.70
2018-03-17T03:12:21.212Z,3.70
2018-03-17T03:14:49.354Z,3.60
2018-03-17T03:17:17.505Z,3.60
2018-03-17T03:19:45.613Z,3.60
2018-03-17T03:22:13.742Z,3.50
2018-03-17T03:24:41.860Z,3.40
2018-03-17T03:27:10.031Z,3.40
2018-03-17T03:29:38.159Z,3.40
2018-03-17T03:32:06.289Z,3.30
2018-03-17T03:34:34.434Z,3.20
2018-03-17T03:37:02.576Z,3.20
2018-03-17T03:39:30.741Z,3.10
2018-03-17T03:41:59.610Z,3.00
2018-03-17T03:44:27.800Z,3.00
2018-03-17T03:46:56.052Z,3.00
2018-03-17T03:49:24.173Z,3.00
2018-03-17T03:51:53.153Z,3.00
2018-03-17T03:54:21.294Z,2.90
2018-03-17T03:56:49.411Z,3.00
2018-03-17T03:59:17.583Z,3.00
2018-03-17T04:01:45.712Z,3.00
2018-03-17T04:04:13.852Z,2.90
2018-03-17T04:06:41.996Z,2.90
2018-03-17T04:09:10.363Z,2.90
2018-03-17T04:11:38.515Z,2.90
2018-03-17T04:14:06.724Z,2.90
2018-03-17T04:16:34.864Z,2.90
2018-03-17T04:19:03.799Z,2.80
2018-03-17T04:21:31.965Z,2.80
2018-03-17T04:24:00.839Z,2.80
2018-03-17T04:26:28.978Z,2.70
2018-03-17T04:28:57.090Z,2.80
2018-03-17T04:31:25.238Z,2.70
2018-03-17T04:33:53.389Z,2.70
2018-03-17T04:36:22.277Z,2.70
2018-03-17T04:38:50.451Z,2.60
2018-03-17T04:41:18.626Z,2.60
2018-03-17T04:43:46.731Z,2.50
2018-03-17T04:46:14.870Z,2.50
2018-03-17T04:48:43.010Z,2.50
2018-03-17T04:51:11.184Z,2.40
2018-03-17T04:53:39.385Z,2.40
2018-03-17T04:56:07.578Z,2.40
2018-03-17T04:58:35.691Z,2.30
2018-03-17T05:01:03.856Z,2.30
2018-03-17T05:03:32.772Z,2.20
2018-03-17T05:06:00.902Z,2.20
2018-03-17T05:08:29.120Z,2.10
2018-03-17T05:10:57.300Z,2.00
2018-03-17T05:13:25.485Z,1.90
2018-03-17T05:15:53.618Z,2.00
2018-03-17T05:18:21.757Z,2.00
2018-03-17T05:20:49.907Z,2.00
2018-03-17T05:23:18.040Z,2.00
2018-03-17T05:25:46.230Z,1.90
2018-03-17T05:28:14.398Z,1.80
2018-03-17T05:30:42.560Z,1.80
2018-03-17T05:33:10.716Z,1.80
2018-03-17T05:35:39.613Z,1.70
2018-03-17T05:38:07.793Z,1.70
2018-03-17T05:40:36.730Z,1.70
2018-03-17T05:43:04.974Z,1.70
2018-03-17T05:45:33.124Z,1.70
2018-03-17T05:48:01.277Z,1.60
2018-03-17T05:50:29.382Z,1.70
2018-03-17T05:52:57.546Z,1.60
2018-03-17T05:55:25.654Z,1.60
2018-03-17T05:57:53.812Z,1.60
2018-03-17T06:00:21.952Z,1.60
2018-03-17T06:02:50.101Z,1.60
2018-03-17T06:05:18.243Z,1.50
2018-03-17T06:07:47.257Z,1.60
2018-03-17T06:10:15.376Z,1.50
2018-03-17T06:12:43.544Z,1.60
2018-03-17T06:15:12.431Z,1.40
2018-03-17T06:17:41.398Z,1.40
2018-03-17T06:20:09.505Z,1.30
2018-03-17T06:22:37.731Z,1.30
2018-03-17T06:25:06.631Z,1.30
2018-03-17T06:27:34.762Z,1.20
2018-03-17T06:30:02.926Z,1.20
2018-03-17T06:32:31.059Z,1.20
2018-03-17T06:34:59.230Z,1.20
2018-03-17T06:37:27.373Z,1.20
2018-03-17T06:39:55.539Z,1.10
2018-03-17T06:42:23.710Z,1.10
2018-03-17T06:44:51.869Z,1.10
2018-03-17T06:47:20.034Z,1.10
2018-03-17T06:49:48.189Z,1.10
2018-03-17T06:52:17.056Z,1.10
2018-03-17T06:54:45.973Z,1.10
2018-03-17T06:57:14.123Z,1.10
2018-03-17T06:59:42.244Z,1.10
2018-03-17T07:02:10.390Z,1.20
2018-03-17T07:04:38.540Z,1.10
2018-03-17T07:07:07.400Z,1.10
2018-03-17T07:09:35.697Z,1.10
2018-03-17T07:12:05.474Z,1.10
2018-03-17T07:14:33.628Z,1.10
2018-03-17T07:17:02.502Z,1.00
2018-03-17T07:19:30.661Z,1.00
2018-03-17T07:21:58.829Z,1.00
2018-03-17T07:24:27.036Z,1.00
2018-03-17T07:26:55.131Z,1.00
2018-03-17T07:29:23.285Z,1.10
2018-03-17T07:31:51.393Z,1.10
2018-03-17T07:34:19.615Z,1.00
2018-03-17T07:36:47.777Z,1.10
2018-03-17T07:39:15.888Z,1.10
2018-03-17T07:41:43.998Z,1.10
2018-03-17T07:44:12.924Z,1.00
2018-03-17T07:46:41.063Z,1.00
2018-03-17T07:49:09.344Z,1.00
2018-03-17T07:51:37.523Z,1.10
2018-03-17T07:54:05.668Z,1.10
2018-03-17T07:56:33.809Z,1.10
2018-03-17T07:59:01.957Z,1.10
2018-03-17T08:01:30.151Z,1.10
2018-03-17T08:03:58.379Z,1.00
2018-03-17T08:06:28.088Z,1.00
2018-03-17T08:08:56.237Z,1.00
2018-03-17T08:11:24.458Z,0.90
2018-03-17T08:13:52.576Z,1.00
2018-03-17T08:16:21.478Z,1.00
2018-03-17T08:18:50.414Z,1.10
2018-03-17T08:21:18.580Z,1.10
2018-03-17T08:23:46.685Z,1.10
2018-03-17T08:26:14.832Z,1.10
2018-03-17T08:28:43.717Z,1.20
2018-03-17T08:31:11.941Z,1.20
2018-03-17T08:33:40.080Z,1.20
2018-03-17T08:36:08.281Z,1.30
2018-03-17T08:38:36.406Z,1.30
2018-03-17T08:41:04.567Z,1.40
2018-03-17T08:43:32.724Z,1.50
2018-03-17T08:46:00.848Z,1.40
2018-03-17T08:48:29.764Z,1.50
2018-03-17T08:50:58.024Z,1.50
2018-03-17T08:53:26.266Z,1.50
2018-03-17T08:55:54.603Z,1.60
2018-03-17T08:58:22.759Z,1.50
2018-03-17T09:00:50.903Z,1.50
2018-03-17T09:03:19.028Z,1.50
2018-03-17T09:05:47.175Z,1.50
2018-03-17T09:08:15.457Z,1.50
2018-03-17T09:10:43.649Z,1.50
2018-03-17T09:13:12.507Z,1.60
2018-03-17T09:15:40.646Z,1.70
2018-03-17T09:18:08.784Z,1.70
2018-03-17T09:20:36.877Z,1.80
2018-03-17T09:23:05.007Z,1.70
2018-03-17T09:25:33.168Z,1.70
2018-03-17T09:28:02.085Z,1.50
2018-03-17T09:30:30.209Z,1.50
2018-03-17T09:32:58.338Z,1.60
2018-03-17T09:35:27.288Z,2.00
2018-03-17T09:37:55.457Z,2.00
2018-03-17T09:40:23.563Z,1.90
2018-03-17T09:42:51.835Z,1.80
2018-03-17T09:45:19.944Z,1.70
2018-03-17T09:47:48.577Z,1.80
2018-03-17T09:50:16.785Z,1.70
2018-03-17T09:52:44.986Z,1.80
2018-03-17T09:55:13.220Z,1.80
2018-03-17T09:57:42.362Z,1.90
2018-03-17T10:00:11.325Z,2.10
2018-03-17T10:02:39.469Z,2.10
2018-03-17T10:05:07.645Z,1.90
2018-03-17T10:07:35.759Z,2.00
2018-03-17T10:10:03.935Z,2.00
2018-03-17T10:12:32.060Z,2.30
2018-03-17T10:15:00.200Z,2.30
2018-03-17T10:17:28.347Z,2.10
2018-03-17T10:19:56.475Z,2.30
2018-03-17T10:22:24.612Z,2.40
2018-03-17T10:24:52.839Z,2.30
2018-03-17T10:27:20.987Z,2.30
2018-03-17T10:29:49.133Z,2.20
2018-03-17T10:32:17.354Z,2.20
2018-03-17T10:34:45.481Z,2.40
2018-03-17T10:37:13.697Z,2.30
2018-03-17T10:39:41.846Z,2.10
2018-03-17T10:42:09.966Z,2.30
2018-03-17T10:44:38.060Z,2.50
2018-03-17T10:47:06.178Z,2.50
2018-03-17T10:49:34.358Z,2.50
2018-03-17T10:52:02.486Z,2.60
2018-03-17T10:54:30.650Z,2.60
2018-03-17T10:56:59.537Z,2.50
2018-03-17T10:59:27.713Z,2.50
2018-03-17T11:02:04.434Z,2.60
2018-03-17T11:04:33.336Z,2.70
2018-03-17T11:07:02.301Z,2.50
2018-03-17T11:09:30.434Z,2.50
2018-03-17T11:11:59.360Z,2.10
2018-03-17T11:14:27.529Z,2.10
2018-03-17T11:16:55.695Z,1.90
2018-03-17T11:19:23.851Z,2.10
2018-03-17T11:21:52.012Z,2.00
2018-03-17T11:24:20.214Z,1.90
2018-03-17T11:26:48.329Z,1.80
2018-03-17T11:29:17.238Z,2.30
2018-03-17T11:31:46.219Z,2.00
2018-03-17T11:34:14.296Z,2.00
2018-03-17T11:36:42.504Z,2.30
2018-03-17T11:39:10.694Z,2.50
2018-03-17T11:41:40.066Z,2.20
2018-03-17T11:44:08.215Z,2.20
2018-03-17T11:46:37.228Z,2.20
2018-03-17T11:49:06.099Z,2.00
2018-03-17T11:51:34.272Z,2.00
2018-03-17T11:54:02.395Z,2.30
2018-03-17T11:56:31.328Z,2.60
2018-03-17T11:58:59.529Z,2.60
2018-03-17T12:01:27.740Z,2.70
2018-03-17T12:03:55.908Z,2.50
2018-03-17T12:06:24.141Z,2.40
2018-03-17T12:08:53.038Z,2.40
2018-03-17T12:11:21.147Z,2.40
2018-03-17T12:13:49.284Z,2.30
2018-03-17T12:16:17.466Z,2.40
2018-03-17T12:18:45.566Z,2.40
2018-03-17T12:21:13.702Z,2.60
2018-03-17T12:23:41.882Z,2.80
2018-03-17T12:26:10.005Z,2.60
2018-03-17T12:28:38.150Z,2.40
2018-03-17T12:31:06.265Z,2.40
2018-03-17T12:33:34.523Z,2.50
2018-03-17T12:36:02.670Z,2.50
2018-03-17T12:38:30.804Z,2.50
2018-03-17T12:40:58.929Z,2.50
2018-03-17T12:43:27.080Z,2.50
2018-03-17T12:45:55.240Z,2.30
2018-03-17T12:48:24.180Z,2.20
2018-03-17T12:50:52.348Z,2.20
2018-03-17T12:53:20.551Z,2.30
2018-03-17T12:55:48.716Z,2.10
2018-03-17T12:58:16.902Z,2.10
2018-03-17T13:00:45.825Z,2.10
2018-03-17T13:03:13.994Z,2.10
2018-03-17T13:05:42.142Z,2.00
2018-03-17T13:08:10.376Z,2.10
2018-03-17T13:10:38.618Z,1.90
2018-03-17T13:13:06.716Z,1.90
2018-03-17T13:15:34.863Z,2.10
2018-03-17T13:18:03.017Z,2.00
2018-03-17T13:20:31.131Z,2.10
2018-03-17T13:23:11.119Z,2.00
2018-03-17T13:25:39.282Z,1.90
2018-03-17T13:28:19.293Z,1.80
2018-03-17T13:30:47.493Z,1.90
2018-03-17T13:33:15.637Z,1.80
2018-03-17T13:35:55.618Z,1.70
2018-03-17T13:38:23.811Z,1.70
2018-03-17T13:40:51.911Z,1.60
2018-03-17T13:43:20.811Z,1.40
2018-03-17T13:45:49.712Z,1.40
2018-03-17T13:48:17.870Z,1.40
2018-03-17T13:50:46.070Z,1.40
2018-03-17T13:53:14.204Z,1.40
2018-03-17T13:55:42.340Z,1.30
2018-03-17T13:58:10.511Z,1.40
2018-03-17T14:00:38.652Z,1.40
2018-03-17T14:03:06.838Z,1.30
2018-03-17T14:05:34.969Z,1.30
2018-03-17T14:08:03.119Z,1.30
2018-03-17T14:10:31.329Z,1.30
2018-03-17T14:12:59.466Z,1.30
2018-03-17T14:15:28.415Z,1.30
2018-03-17T14:17:56.564Z,1.30
2018-03-17T14:20:24.693Z,1.20
2018-03-17T14:22:52.808Z,1.20
2018-03-17T14:25:20.980Z,1.20
2018-03-17T14:27:49.101Z,1.20
2018-03-17T14:30:17.305Z,1.20
2018-03-17T14:32:45.350Z,1.20
2018-03-17T14:35:13.626Z,1.20
2018-03-17T14:37:41.798Z,1.20
2018-03-17T14:40:09.939Z,1.10
2018-03-17T14:42:38.092Z,1.00
2018-03-17T14:45:06.214Z,1.10
2018-03-17T14:47:34.426Z,1.10
2018-03-17T14:50:02.600Z,1.00
2018-03-17T14:52:30.850Z,1.00
2018-03-17T14:54:59.032Z,1.00
2018-03-17T14:57:27.982Z,1.00
2018-03-17T14:59:56.100Z,0.90
2018-03-17T15:02:24.340Z,1.00
2018-03-17T15:04:52.499Z,1.10
2018-03-17T15:07:21.450Z,0.90
2018-03-17T15:09:49.557Z,0.80
2018-03-17T15:12:17.682Z,0.80
2018-03-17T15:14:45.890Z,0.80
2018-03-17T15:17:14.041Z,0.80
2018-03-17T15:19:42.149Z,0.80
2018-03-17T15:22:10.307Z,0.80
2018-03-17T15:24:38.416Z,0.80
2018-03-17T15:27:06.602Z,0.80
2018-03-17T15:29:35.463Z,0.80
2018-03-17T15:32:03.612Z,0.80
2018-03-17T15:34:31.775Z,0.70
2018-03-17T15:37:00.678Z,0.80
2018-03-17T15:39:29.573Z,0.70
2018-03-17T15:41:58.643Z,0.80
2018-03-17T15:44:26.749Z,0.70
2018-03-17T15:46:54.920Z,0.80
2018-03-17T15:49:23.047Z,0.80
2018-03-17T15:51:51.350Z,0.70
2018-03-17T15:54:20.209Z,0.80
2018-03-17T15:56:48.373Z,0.80
2018-03-17T15:59:16.622Z,0.80
2018-03-17T16:01:45.584Z,0.80
2018-03-17T16:04:13.717Z,0.80
2018-03-17T16:06:41.856Z,0.70
2018-03-17T16:09:09.995Z,0.70
2018-03-17T16:11:38.108Z,0.70
2018-03-17T16:14:06.284Z,0.70
2018-03-17T16:16:34.456Z,0.60
2018-03-17T16:19:02.576Z,0.60
2018-03-17T16:21:30.694Z,0.60
2018-03-17T16:23:59.598Z,0.60
2018-03-17T16:26:27.818Z,0.60
2018-03-17T16:28:55.940Z,0.60
2018-03-17T16:31:24.081Z,0.60
2018-03-17T16:33:52.311Z,0.60
2018-03-17T16:36:20.472Z,0.50
2018-03-17T16:38:48.722Z,0.50
2018-03-17T16:41:17.678Z,0.50
2018-03-17T16:43:45.775Z,0.40
2018-03-17T16:46:13.905Z,0.40
2018-03-17T16:48:42.077Z,0.40
2018-03-17T16:51:10.926Z,0.30
2018-03-17T16:53:39.101Z,0.30
2018-03-17T16:56:07.234Z,0.30
2018-03-17T16:58:35.340Z,0.30
2018-03-17T17:01:04.241Z,0.30
2018-03-17T17:03:33.170Z,0.30
2018-03-17T17:06:01.276Z,0.20
2018-03-17T17:08:29.432Z,0.20
2018-03-17T17:10:57.713Z,0.20
2018-03-17T17:13:25.852Z,0.20
2018-03-17T17:15:53.963Z,0.10
2018-03-17T17:18:22.146Z,0.10
2018-03-17T17:20:50.304Z,0.00
2018-03-17T17:23:18.512Z,-0.10
2018-03-17T17:25:46.662Z,-0.10
2018-03-17T17:28:14.850Z,-0.10
2018-03-17T17:30:42.934Z,-0.20
2018-03-17T17:33:11.185Z,-0.20
2018-03-17T17:35:40.075Z,-0.20
2018-03-17T17:38:08.192Z,-0.30
2018-03-17T17:40:36.310Z,-0.30
2018-03-17T17:43:04.466Z,-0.30
2018-03-17T17:45:32.592Z,-0.30
2018-03-17T17:48:00.749Z,-0.40
2018-03-17T17:50:29.000Z,-0.40
2018-03-17T17:52:57.558Z,-0.40
2018-03-17T17:55:25.681Z,-0.40
2018-03-17T17:57:54.582Z,-0.40
2018-03-17T18:00:23.536Z,-0.40
2018-03-17T18:02:51.682Z,-0.50
2018-03-17T18:05:19.814Z,-0.50
2018-03-17T18:07:47.945Z,-0.50
2018-03-17T18:10:16.879Z,-0.50
2018-03-17T18:12:45.073Z,-0.60
2018-03-17T18:15:13.219Z,-0.50
2018-03-17T18:17:42.160Z,-0.50
2018-03-17T18:20:10.296Z,-0.50
2018-03-17T18:22:39.187Z,-0.60
2018-03-17T18:25:07.374Z,-0.60
2018-03-17T18:27:35.583Z,-0.60
2018-03-17T18:30:03.800Z,-0.60
2018-03-17T18:32:31.910Z,-0.70
2018-03-17T18:35:00.138Z,-0.80
2018-03-17T18:37:28.430Z,-0.80
2018-03-17T18:39:57.347Z,-0.80
2018-03-17T18:42:25.599Z,-0.90
2018-03-17T18:44:53.861Z,-0.90
2018-03-17T18:47:22.026Z,-1.00
2018-03-17T18:49:50.200Z,-1.00
2018-03-17T18:52:19.084Z,-1.00
2018-03-17T18:54:48.002Z,-1.00
2018-03-17T18:57:16.167Z,-1.00
2018-03-17T18:59:44.321Z,-1.00
2018-03-17T19:02:12.479Z,-1.10
2018-03-17T19:04:40.642Z,-1.00
2018-03-17T19:07:09.581Z,-1.00
2018-03-17T19:09:37.732Z,-1.10
2018-03-17T19:12:06.660Z,-1.00
2018-03-17T19:14:34.800Z,-1.10
2018-03-17T19:17:02.990Z,-1.00
2018-03-17T19:19:31.121Z,-1.00
2018-03-17T19:21:59.248Z,-1.00
2018-03-17T19:24:27.390Z,-1.10
2018-03-17T19:26:55.551Z,-1.10
2018-03-17T19:29:24.517Z,-1.00
2018-03-17T19:31:52.658Z,-1.10
2018-03-17T19:34:20.833Z,-1.10
2018-03-17T19:36:49.711Z,-1.10
2018-03-17T19:39:17.877Z,-1.10
2018-03-17T19:41:46.014Z,-1.00
2018-03-17T19:44:14.129Z,-1.00
2018-03-17T19:46:42.299Z,-0.90
2018-03-17T19:49:10.485Z,-0.90
2018-03-17T19:51:38.678Z,-0.80
2018-03-17T19:54:06.821Z,-0.80
2018-03-17T19:59:30.128Z,-0.80
2018-03-17T20:01:59.005Z,-0.80
2018-03-17T20:04:27.144Z,-0.90
2018-03-17T20:06:55.366Z,-0.80
2018-03-17T20:09:23.528Z,-0.90
2018-03-17T20:11:51.690Z,-1.00
2018-03-17T20:14:20.577Z,-0.90
2018-03-17T20:16:48.708Z,-0.90
2018-03-17T20:19:16.838Z,-0.90
2018-03-17T20:21:45.088Z,-0.90
2018-03-17T20:24:13.192Z,-0.90
2018-03-17T20:26:41.345Z,-0.90
2018-03-17T20:29:09.479Z,-0.90
2018-03-17T20:31:37.633Z,-0.90
2018-03-17T20:34:05.782Z,-1.00
2018-03-17T20:36:33.967Z,-0.90
2018-03-17T20:39:02.086Z,-1.00
2018-03-17T20:41:30.221Z,-1.00
2018-03-17T20:43:58.743Z,-1.00
2018-03-17T20:46:26.906Z,-1.10
2018-03-17T20:48:55.804Z,-1.10
2018-03-17T20:51:23.938Z,-1.20
2018-03-17T20:53:52.119Z,-1.20
2018-03-17T20:56:20.229Z,-1.20
2018-03-17T20:58:48.409Z,-1.20
2018-03-17T21:01:17.087Z,-1.20
2018-03-17T21:03:45.371Z,-1.20
2018-03-17T21:06:13.692Z,-1.30
2018-03-17T21:08:41.859Z,-1.30
2018-03-17T21:11:10.016Z,-1.40
2018-03-17T21:13:39.039Z,-1.60
2018-03-17T21:16:07.227Z,-1.60
2018-03-17T21:18:35.336Z,-1.70
2018-03-17T21:21:03.582Z,-1.70
2018-03-17T21:23:32.500Z,-1.80
2018-03-17T21:26:00.646Z,-1.80
2018-03-17T21:28:28.869Z,-1.90
2018-03-17T21:30:57.037Z,-1.90
2018-03-17T21:33:25.934Z,-2.00
2018-03-17T21:35:54.926Z,-2.00
2018-03-17T21:38:23.097Z,-2.00
2018-03-17T21:40:51.388Z,-2.00
2018-03-17T21:43:20.285Z,-2.00
2018-03-17T21:45:48.464Z,-2.10
2018-03-17T21:48:16.774Z,-2.00
2018-03-17T21:50:44.891Z,-2.00
2018-03-17T21:53:13.773Z,-2.00
2018-03-17T21:55:41.924Z,-2.10
2018-03-17T21:58:10.080Z,-2.10
2018-03-17T22:00:38.226Z,-2.10
2018-03-17T22:03:06.430Z,-2.00
2018-03-17T22:05:34.639Z,-2.10
2018-03-17T22:08:02.840Z,-2.10
2018-03-17T22:10:30.981Z,-2.20
2018-03-17T22:12:59.207Z,-2.20
2018-03-17T22:15:27.585Z,-2.30
2018-03-17T22:17:56.461Z,-2.50
2018-03-17T22:20:24.613Z,-2.50
2018-03-17T22:22:53.003Z,-2.50
2018-03-17T22:25:21.163Z,-2.60
2018-03-17T22:27:49.373Z,-2.60
2018-03-17T22:30:17.560Z,-2.60
2018-03-17T22:32:45.743Z,-2.60
2018-03-17T22:35:13.916Z,-2.70
2018-03-17T22:37:42.067Z,-2.70
2018-03-17T22:40:10.994Z,-2.80
2018-03-17T22:42:39.158Z,-2.80
2018-03-17T22:45:08.069Z,-2.80
2018-03-17T22:47:36.971Z,-2.80
2018-03-17T22:50:05.919Z,-2.90
2018-03-17T22:52:34.116Z,-2.90
2018-03-17T22:55:02.297Z,-2.90
2018-03-17T22:57:30.437Z,-2.90
2018-03-17T22:59:59.466Z,-3.00
2018-03-17T23:02:27.624Z,-3.00
2018-03-17T23:04:56.561Z,-3.00
2018-03-17T23:07:24.766Z,-3.00
2018-03-17T23:09:52.856Z,-3.00
2018-03-17T23:12:21.040Z,-3.00
2018-03-17T23:14:49.187Z,-3.00
2018-03-17T23:17:17.384Z,-3.00
2018-03-17T23:19:45.645Z,-3.00
2018-03-17T23:22:13.796Z,-3.10
2018-03-17T23:24:41.970Z,-3.20
2018-03-17T23:27:10.163Z,-3.10
2018-03-17T23:29:38.312Z,-3.10
2018-03-17T23:32:06.462Z,-3.20
2018-03-17T23:34:34.633Z,-3.20
2018-03-17T23:37:02.767Z,-3.20
2018-03-17T23:39:31.737Z,-3.20
2018-03-17T23:41:59.927Z,-3.20
2018-03-17T23:44:28.051Z,-3.20
2018-03-17T23:46:56.261Z,-3.20
2018-03-17T23:49:24.391Z,-3.20
2018-03-17T23:51:52.571Z,-3.20
2018-03-17T23:54:20.713Z,-3.30
2018-03-17T23:56:49.108Z,-3.30
2018-03-17T23:59:17.221Z,-3.30
